sensor_id;sensor_type;location;lat;lon;timestamp;P1;durP1;ratioP1;P2;durP2;ratioP2
27863;SDS011;15980;51.092;13.916;2022-12-07T00:01:25;37.72;;;13.77;;
27863;SDS011;15980;51.092;13.916;2022-12-07T00:06:31;36.45;;;12.95;;
27863;SDS011;15980;51.092;13.916;2022-12-07T00:11:39;31.85;;;12.60;;
27863;SDS011;15980;51.092;13.916;2022-12-07T00:16:48;35.67;;;11.90;;
27863;SDS011;15980;51.092;13.916;2022-12-07T00:21:53;39.03;;;13.63;;
27863;SDS011;15980;51.092;13.916;2022-12-07T00:27:01;39.20;;;13.98;;
27863;SDS011;15980;51.092;13.916;2022-12-07T00:32:06;30.08;;;12.30;;
27863;SDS011;15980;51.092;13.916;2022-12-07T00:37:11;31.73;;;12.32;;
27863;SDS011;15980;51.092;13.916;2022-12-07T00:42:19;31.65;;;11.55;;
27863;SDS011;15980;51.092;13.916;2022-12-07T00:47:24;31.88;;;12.50;;
27863;SDS011;15980;51.092;13.916;2022-12-07T00:52:29;32.20;;;11.43;;
27863;SDS011;15980;51.092;13.916;2022-12-07T00:57:37;31.20;;;12.50;;
27863;SDS011;15980;51.092;13.916;2022-12-07T01:02:41;29.33;;;10.85;;
27863;SDS011;15980;51.092;13.916;2022-12-07T01:07:46;27.50;;;11.15;;
27863;SDS011;15980;51.092;13.916;2022-12-07T01:12:54;28.90;;;12.00;;
27863;SDS011;15980;51.092;13.916;2022-12-07T01:17:59;24.90;;;10.43;;
27863;SDS011;15980;51.092;13.916;2022-12-07T01:23:04;30.35;;;11.95;;
27863;SDS011;15980;51.092;13.916;2022-12-07T01:28:12;27.90;;;11.07;;
27863;SDS011;15980;51.092;13.916;2022-12-07T01:33:16;33.78;;;11.57;;
27863;SDS011;15980;51.092;13.916;2022-12-07T01:38:21;31.95;;;11.80;;
27863;SDS011;15980;51.092;13.916;2022-12-07T01:43:30;28.13;;;10.95;;
27863;SDS011;15980;51.092;13.916;2022-12-07T01:48:38;28.15;;;10.93;;
27863;SDS011;15980;51.092;13.916;2022-12-07T01:53:45;29.00;;;11.60;;
27863;SDS011;15980;51.092;13.916;2022-12-07T01:58:53;32.28;;;11.13;;
27863;SDS011;15980;51.092;13.916;2022-12-07T02:04:00;33.65;;;11.82;;
27863;SDS011;15980;51.092;13.916;2022-12-07T02:09:05;30.67;;;11.93;;
27863;SDS011;15980;51.092;13.916;2022-12-07T02:14:13;29.15;;;11.00;;
27863;SDS011;15980;51.092;13.916;2022-12-07T02:19:34;30.25;;;12.32;;
27863;SDS011;15980;51.092;13.916;2022-12-07T02:24:56;32.17;;;11.38;;
27863;SDS011;15980;51.092;13.916;2022-12-07T02:30:13;29.70;;;11.45;;
27863;SDS011;15980;51.092;13.916;2022-12-07T02:35:20;26.77;;;10.80;;
27863;SDS011;15980;51.092;13.916;2022-12-07T02:40:31;20.47;;;7.83;;
27863;SDS011;15980;51.092;13.916;2022-12-07T02:51:38;21.67;;;8.80;;
27863;SDS011;15980;51.092;13.916;2022-12-07T03:01:54;22.60;;;9.45;;
27863;SDS011;15980;51.092;13.916;2022-12-07T03:07:11;30.98;;;10.80;;
27863;SDS011;15980;51.092;13.916;2022-12-07T03:12:27;28.92;;;10.82;;
27863;SDS011;15980;51.092;13.916;2022-12-07T03:17:40;24.83;;;10.13;;
27863;SDS011;15980;51.092;13.916;2022-12-07T03:22:50;18.60;;;8.13;;
27863;SDS011;15980;51.092;13.916;2022-12-07T03:27:59;25.75;;;10.05;;
27863;SDS011;15980;51.092;13.916;2022-12-07T03:33:10;24.75;;;9.23;;
27863;SDS011;15980;51.092;13.916;2022-12-07T03:38:23;22.50;;;9.40;;
27863;SDS011;15980;51.092;13.916;2022-12-07T03:43:32;26.88;;;11.60;;
27863;SDS011;15980;51.092;13.916;2022-12-07T03:48:39;46.72;;;21.88;;
27863;SDS011;15980;51.092;13.916;2022-12-07T03:53:51;32.92;;;15.38;;
27863;SDS011;15980;51.092;13.916;2022-12-07T03:59:01;36.22;;;14.15;;
27863;SDS011;15980;51.092;13.916;2022-12-07T04:04:06;36.33;;;16.20;;
27863;SDS011;15980;51.092;13.916;2022-12-07T04:09:14;35.80;;;15.50;;
27863;SDS011;15980;51.092;13.916;2022-12-07T04:14:19;35.05;;;14.45;;
27863;SDS011;15980;51.092;13.916;2022-12-07T04:19:25;29.65;;;14.10;;
27863;SDS011;15980;51.092;13.916;2022-12-07T04:24:35;38.72;;;18.48;;
27863;SDS011;15980;51.092;13.916;2022-12-07T04:29:40;33.17;;;12.73;;
27863;SDS011;15980;51.092;13.916;2022-12-07T04:34:44;29.25;;;12.32;;
27863;SDS011;15980;51.092;13.916;2022-12-07T04:39:54;32.97;;;12.20;;
27863;SDS011;15980;51.092;13.916;2022-12-07T04:44:59;34.60;;;13.80;;
27863;SDS011;15980;51.092;13.916;2022-12-07T04:50:05;43.47;;;17.45;;
27863;SDS011;15980;51.092;13.916;2022-12-07T04:55:13;39.25;;;17.38;;
27863;SDS011;15980;51.092;13.916;2022-12-07T05:00:18;38.40;;;14.68;;
27863;SDS011;15980;51.092;13.916;2022-12-07T05:05:25;44.08;;;18.13;;
27863;SDS011;15980;51.092;13.916;2022-12-07T05:10:33;44.15;;;17.25;;
27863;SDS011;15980;51.092;13.916;2022-12-07T05:15:38;30.08;;;12.30;;
27863;SDS011;15980;51.092;13.916;2022-12-07T05:20:44;28.08;;;10.93;;
27863;SDS011;15980;51.092;13.916;2022-12-07T05:25:52;28.55;;;10.32;;
27863;SDS011;15980;51.092;13.916;2022-12-07T05:30:56;44.45;;;20.33;;
27863;SDS011;15980;51.092;13.916;2022-12-07T05:36:01;40.65;;;20.17;;
27863;SDS011;15980;51.092;13.916;2022-12-07T05:41:11;29.67;;;12.63;;
27863;SDS011;15980;51.092;13.916;2022-12-07T05:46:31;29.17;;;13.07;;
27863;SDS011;15980;51.092;13.916;2022-12-07T05:51:36;27.75;;;11.15;;
27863;SDS011;15980;51.092;13.916;2022-12-07T05:56:44;33.60;;;11.32;;
27863;SDS011;15980;51.092;13.916;2022-12-07T06:01:51;20.13;;;9.02;;
27863;SDS011;15980;51.092;13.916;2022-12-07T06:06:58;21.00;;;9.70;;
27863;SDS011;15980;51.092;13.916;2022-12-07T06:12:06;24.92;;;11.10;;
27863;SDS011;15980;51.092;13.916;2022-12-07T06:17:25;19.33;;;8.68;;
27863;SDS011;15980;51.092;13.916;2022-12-07T06:22:30;19.63;;;7.70;;
27863;SDS011;15980;51.092;13.916;2022-12-07T06:27:38;17.48;;;6.80;;
27863;SDS011;15980;51.092;13.916;2022-12-07T06:32:45;23.02;;;11.88;;
27863;SDS011;15980;51.092;13.916;2022-12-07T06:37:57;19.98;;;10.82;;
27863;SDS011;15980;51.092;13.916;2022-12-07T06:43:08;19.15;;;9.07;;
27863;SDS011;15980;51.092;13.916;2022-12-07T06:48:16;18.42;;;9.02;;
27863;SDS011;15980;51.092;13.916;2022-12-07T06:53:22;19.88;;;8.25;;
27863;SDS011;15980;51.092;13.916;2022-12-07T06:58:32;15.68;;;7.47;;
27863;SDS011;15980;51.092;13.916;2022-12-07T07:03:40;24.83;;;12.30;;
27863;SDS011;15980;51.092;13.916;2022-12-07T07:08:47;17.38;;;6.43;;
27863;SDS011;15980;51.092;13.916;2022-12-07T07:14:00;17.42;;;8.75;;
27863;SDS011;15980;51.092;13.916;2022-12-07T07:19:07;23.30;;;9.40;;
27863;SDS011;15980;51.092;13.916;2022-12-07T07:24:13;21.10;;;9.25;;
27863;SDS011;15980;51.092;13.916;2022-12-07T07:29:22;17.65;;;8.40;;
27863;SDS011;15980;51.092;13.916;2022-12-07T07:34:27;20.27;;;8.32;;
27863;SDS011;15980;51.092;13.916;2022-12-07T07:39:32;16.73;;;6.60;;
27863;SDS011;15980;51.092;13.916;2022-12-07T07:44:39;16.95;;;7.43;;
27863;SDS011;15980;51.092;13.916;2022-12-07T07:49:44;19.42;;;7.97;;
27863;SDS011;15980;51.092;13.916;2022-12-07T07:54:49;17.88;;;7.43;;
27863;SDS011;15980;51.092;13.916;2022-12-07T07:59:57;19.38;;;8.88;;
27863;SDS011;15980;51.092;13.916;2022-12-07T08:05:02;15.85;;;7.32;;
27863;SDS011;15980;51.092;13.916;2022-12-07T08:10:08;16.88;;;7.28;;
27863;SDS011;15980;51.092;13.916;2022-12-07T08:15:17;18.75;;;7.95;;
27863;SDS011;15980;51.092;13.916;2022-12-07T08:20:22;14.70;;;7.22;;
27863;SDS011;15980;51.092;13.916;2022-12-07T08:25:27;16.73;;;8.55;;
27863;SDS011;15980;51.092;13.916;2022-12-07T08:30:35;18.52;;;8.27;;
27863;SDS011;15980;51.092;13.916;2022-12-07T08:35:40;21.20;;;8.55;;
27863;SDS011;15980;51.092;13.916;2022-12-07T08:40:44;21.27;;;8.93;;
27863;SDS011;15980;51.092;13.916;2022-12-07T08:45:53;21.45;;;9.70;;
27863;SDS011;15980;51.092;13.916;2022-12-07T08:51:04;21.73;;;9.05;;
27863;SDS011;15980;51.092;13.916;2022-12-07T08:56:09;19.08;;;8.70;;
27863;SDS011;15980;51.092;13.916;2022-12-07T09:01:17;18.35;;;8.77;;
27863;SDS011;15980;51.092;13.916;2022-12-07T09:06:22;21.05;;;9.38;;
27863;SDS011;15980;51.092;13.916;2022-12-07T09:11:27;20.73;;;8.85;;
27863;SDS011;15980;51.092;13.916;2022-12-07T09:16:34;18.23;;;8.88;;
27863;SDS011;15980;51.092;13.916;2022-12-07T09:21:39;17.80;;;8.85;;
27863;SDS011;15980;51.092;13.916;2022-12-07T09:26:44;16.67;;;8.48;;
27863;SDS011;15980;51.092;13.916;2022-12-07T09:31:52;19.83;;;8.93;;
27863;SDS011;15980;51.092;13.916;2022-12-07T09:36:57;15.75;;;7.65;;
27863;SDS011;15980;51.092;13.916;2022-12-07T09:42:02;17.88;;;8.20;;
27863;SDS011;15980;51.092;13.916;2022-12-07T09:47:14;15.73;;;7.68;;
27863;SDS011;15980;51.092;13.916;2022-12-07T09:52:20;16.70;;;8.05;;
27863;SDS011;15980;51.092;13.916;2022-12-07T09:57:33;14.70;;;7.28;;
27863;SDS011;15980;51.092;13.916;2022-12-07T10:02:42;13.65;;;6.82;;
27863;SDS011;15980;51.092;13.916;2022-12-07T10:07:49;14.07;;;6.55;;
27863;SDS011;15980;51.092;13.916;2022-12-07T10:12:55;16.42;;;6.88;;
27863;SDS011;15980;51.092;13.916;2022-12-07T10:18:13;12.98;;;5.82;;
27863;SDS011;15980;51.092;13.916;2022-12-07T10:23:23;17.15;;;6.90;;
27863;SDS011;15980;51.092;13.916;2022-12-07T10:28:33;12.48;;;6.00;;
27863;SDS011;15980;51.092;13.916;2022-12-07T10:33:52;11.95;;;6.28;;
27863;SDS011;15980;51.092;13.916;2022-12-07T10:39:01;12.27;;;5.45;;
27863;SDS011;15980;51.092;13.916;2022-12-07T10:44:10;11.73;;;5.88;;
27863;SDS011;15980;51.092;13.916;2022-12-07T10:49:39;12.63;;;5.60;;
27863;SDS011;15980;51.092;13.916;2022-12-07T10:55:08;12.00;;;5.68;;
27863;SDS011;15980;51.092;13.916;2022-12-07T11:00:25;14.30;;;6.13;;
27863;SDS011;15980;51.092;13.916;2022-12-07T11:05:39;6.20;;;3.42;;
27863;SDS011;15980;51.092;13.916;2022-12-07T11:10:57;13.07;;;5.65;;
27863;SDS011;15980;51.092;13.916;2022-12-07T11:16:19;15.38;;;6.68;;
27863;SDS011;15980;51.092;13.916;2022-12-07T11:21:39;12.75;;;6.28;;
27863;SDS011;15980;51.092;13.916;2022-12-07T11:26:58;13.48;;;6.47;;
27863;SDS011;15980;51.092;13.916;2022-12-07T11:32:14;17.85;;;6.55;;
27863;SDS011;15980;51.092;13.916;2022-12-07T11:37:30;11.93;;;6.50;;
27863;SDS011;15980;51.092;13.916;2022-12-07T11:42:41;14.60;;;6.90;;
27863;SDS011;15980;51.092;13.916;2022-12-07T11:47:51;15.27;;;7.07;;
27863;SDS011;15980;51.092;13.916;2022-12-07T11:53:14;13.65;;;6.70;;
27863;SDS011;15980;51.092;13.916;2022-12-07T11:58:39;9.50;;;4.00;;
27863;SDS011;15980;51.092;13.916;2022-12-07T12:03:52;7.10;;;3.70;;
27863;SDS011;15980;51.092;13.916;2022-12-07T12:09:13;8.32;;;4.70;;
27863;SDS011;15980;51.092;13.916;2022-12-07T12:14:44;14.05;;;6.22;;
27863;SDS011;15980;51.092;13.916;2022-12-07T12:20:01;13.27;;;7.00;;
27863;SDS011;15980;51.092;13.916;2022-12-07T12:25:19;15.05;;;6.68;;
27863;SDS011;15980;51.092;13.916;2022-12-07T12:30:33;13.25;;;5.90;;
27863;SDS011;15980;51.092;13.916;2022-12-07T12:35:41;13.63;;;6.05;;
27863;SDS011;15980;51.092;13.916;2022-12-07T12:40:50;16.58;;;6.60;;
27863;SDS011;15980;51.092;13.916;2022-12-07T12:51:36;17.92;;;9.25;;
27863;SDS011;15980;51.092;13.916;2022-12-07T12:56:47;15.63;;;6.63;;
27863;SDS011;15980;51.092;13.916;2022-12-07T13:02:06;16.35;;;6.13;;
27863;SDS011;15980;51.092;13.916;2022-12-07T13:13:04;12.82;;;6.60;;
27863;SDS011;15980;51.092;13.916;2022-12-07T13:18:34;13.55;;;6.07;;
27863;SDS011;15980;51.092;13.916;2022-12-07T13:23:52;15.10;;;5.80;;
27863;SDS011;15980;51.092;13.916;2022-12-07T13:29:10;10.70;;;5.63;;
27863;SDS011;15980;51.092;13.916;2022-12-07T13:39:44;4.72;;;2.70;;
27863;SDS011;15980;51.092;13.916;2022-12-07T13:44:55;6.70;;;2.20;;
27863;SDS011;15980;51.092;13.916;2022-12-07T13:50:20;7.68;;;2.42;;
27863;SDS011;15980;51.092;13.916;2022-12-07T13:55:29;7.80;;;3.22;;
27863;SDS011;15980;51.092;13.916;2022-12-07T14:00:41;11.27;;;3.67;;
27863;SDS011;15980;51.092;13.916;2022-12-07T14:06:02;16.02;;;4.53;;
27863;SDS011;15980;51.092;13.916;2022-12-07T14:11:12;10.63;;;5.45;;
27863;SDS011;15980;51.092;13.916;2022-12-07T14:21:33;7.65;;;4.00;;
27863;SDS011;15980;51.092;13.916;2022-12-07T14:26:40;10.30;;;5.30;;
27863;SDS011;15980;51.092;13.916;2022-12-07T14:31:49;8.75;;;4.93;;
27863;SDS011;15980;51.092;13.916;2022-12-07T14:36:56;12.98;;;5.35;;
27863;SDS011;15980;51.092;13.916;2022-12-07T14:42:02;9.55;;;5.20;;
27863;SDS011;15980;51.092;13.916;2022-12-07T14:53:03;14.32;;;6.05;;
27863;SDS011;15980;51.092;13.916;2022-12-07T14:58:23;14.80;;;5.95;;
27863;SDS011;15980;51.092;13.916;2022-12-07T15:03:30;14.95;;;5.90;;
27863;SDS011;15980;51.092;13.916;2022-12-07T15:08:39;11.32;;;5.85;;
27863;SDS011;15980;51.092;13.916;2022-12-07T15:13:46;10.77;;;4.93;;
27863;SDS011;15980;51.092;13.916;2022-12-07T15:19:04;12.20;;;6.25;;
27863;SDS011;15980;51.092;13.916;2022-12-07T15:24:34;11.73;;;6.68;;
27863;SDS011;15980;51.092;13.916;2022-12-07T15:29:40;15.38;;;7.55;;
27863;SDS011;15980;51.092;13.916;2022-12-07T15:34:47;11.88;;;5.40;;
27863;SDS011;15980;51.092;13.916;2022-12-07T15:39:57;10.77;;;4.68;;
27863;SDS011;15980;51.092;13.916;2022-12-07T15:45:08;8.30;;;4.32;;
27863;SDS011;15980;51.092;13.916;2022-12-07T15:50:18;5.83;;;3.17;;
27863;SDS011;15980;51.092;13.916;2022-12-07T15:55:27;6.88;;;3.75;;
27863;SDS011;15980;51.092;13.916;2022-12-07T16:00:33;7.95;;;3.80;;
27863;SDS011;15980;51.092;13.916;2022-12-07T16:05:39;10.32;;;4.40;;
27863;SDS011;15980;51.092;13.916;2022-12-07T16:10:48;9.05;;;4.60;;
27863;SDS011;15980;51.092;13.916;2022-12-07T16:15:56;7.80;;;3.23;;
27863;SDS011;15980;51.092;13.916;2022-12-07T16:21:02;7.97;;;4.22;;
27863;SDS011;15980;51.092;13.916;2022-12-07T16:26:12;13.00;;;6.85;;
27863;SDS011;15980;51.092;13.916;2022-12-07T16:31:21;11.48;;;5.75;;
27863;SDS011;15980;51.092;13.916;2022-12-07T16:36:28;12.40;;;5.28;;
27863;SDS011;15980;51.092;13.916;2022-12-07T16:42:03;13.02;;;5.32;;
27863;SDS011;15980;51.092;13.916;2022-12-07T16:47:10;12.15;;;4.65;;
27863;SDS011;15980;51.092;13.916;2022-12-07T16:52:17;14.65;;;5.25;;
27863;SDS011;15980;51.092;13.916;2022-12-07T16:57:26;10.45;;;4.47;;
27863;SDS011;15980;51.092;13.916;2022-12-07T17:02:32;9.98;;;4.22;;
27863;SDS011;15980;51.092;13.916;2022-12-07T17:07:39;8.20;;;3.92;;
27863;SDS011;15980;51.092;13.916;2022-12-07T17:12:47;6.45;;;3.22;;
27863;SDS011;15980;51.092;13.916;2022-12-07T17:17:54;9.85;;;3.63;;
27863;SDS011;15980;51.092;13.916;2022-12-07T17:23:07;5.47;;;3.00;;
27863;SDS011;15980;51.092;13.916;2022-12-07T17:28:16;9.20;;;3.50;;
27863;SDS011;15980;51.092;13.916;2022-12-07T17:33:22;8.57;;;3.42;;
27863;SDS011;15980;51.092;13.916;2022-12-07T17:38:29;7.78;;;3.28;;
27863;SDS011;15980;51.092;13.916;2022-12-07T17:43:38;9.85;;;3.83;;
27863;SDS011;15980;51.092;13.916;2022-12-07T17:48:44;6.30;;;2.80;;
27863;SDS011;15980;51.092;13.916;2022-12-07T17:53:50;6.13;;;2.85;;
27863;SDS011;15980;51.092;13.916;2022-12-07T17:59:00;9.60;;;6.00;;
27863;SDS011;15980;51.092;13.916;2022-12-07T18:04:08;15.70;;;9.32;;
27863;SDS011;15980;51.092;13.916;2022-12-07T18:09:15;32.42;;;21.90;;
27863;SDS011;15980;51.092;13.916;2022-12-07T18:14:26;8.05;;;5.20;;
27863;SDS011;15980;51.092;13.916;2022-12-07T18:19:34;14.55;;;4.72;;
27863;SDS011;15980;51.092;13.916;2022-12-07T18:24:42;7.93;;;2.88;;
27863;SDS011;15980;51.092;13.916;2022-12-07T18:29:51;8.63;;;3.67;;
27863;SDS011;15980;51.092;13.916;2022-12-07T18:34:56;11.07;;;4.18;;
27863;SDS011;15980;51.092;13.916;2022-12-07T18:40:04;8.98;;;3.92;;
27863;SDS011;15980;51.092;13.916;2022-12-07T18:45:18;8.60;;;3.10;;
27863;SDS011;15980;51.092;13.916;2022-12-07T18:50:24;6.80;;;3.17;;
27863;SDS011;15980;51.092;13.916;2022-12-07T18:55:31;8.05;;;3.75;;
27863;SDS011;15980;51.092;13.916;2022-12-07T19:00:41;11.23;;;6.28;;
27863;SDS011;15980;51.092;13.916;2022-12-07T19:05:47;7.57;;;3.72;;
27863;SDS011;15980;51.092;13.916;2022-12-07T19:10:53;8.30;;;5.38;;
27863;SDS011;15980;51.092;13.916;2022-12-07T19:16:26;10.88;;;5.35;;
27863;SDS011;15980;51.092;13.916;2022-12-07T19:21:34;12.25;;;4.97;;
27863;SDS011;15980;51.092;13.916;2022-12-07T19:26:42;11.20;;;5.90;;
27863;SDS011;15980;51.092;13.916;2022-12-07T19:31:51;15.27;;;5.55;;
27863;SDS011;15980;51.092;13.916;2022-12-07T19:36:57;6.70;;;3.80;;
27863;SDS011;15980;51.092;13.916;2022-12-07T19:42:04;8.15;;;3.83;;
27863;SDS011;15980;51.092;13.916;2022-12-07T19:47:15;12.48;;;4.80;;
27863;SDS011;15980;51.092;13.916;2022-12-07T19:52:21;15.85;;;5.75;;
27863;SDS011;15980;51.092;13.916;2022-12-07T19:57:29;21.92;;;7.18;;
27863;SDS011;15980;51.092;13.916;2022-12-07T20:02:44;13.93;;;5.15;;
27863;SDS011;15980;51.092;13.916;2022-12-07T20:07:50;7.68;;;3.85;;
27863;SDS011;15980;51.092;13.916;2022-12-07T20:12:58;12.68;;;6.00;;
27863;SDS011;15980;51.092;13.916;2022-12-07T20:18:19;17.65;;;5.80;;
27863;SDS011;15980;51.092;13.916;2022-12-07T20:23:26;15.88;;;5.63;;
27863;SDS011;15980;51.092;13.916;2022-12-07T20:28:33;13.52;;;4.55;;
27863;SDS011;15980;51.092;13.916;2022-12-07T20:33:43;12.85;;;4.45;;
27863;SDS011;15980;51.092;13.916;2022-12-07T20:38:57;9.40;;;4.60;;
27863;SDS011;15980;51.092;13.916;2022-12-07T20:44:09;8.90;;;4.28;;
27863;SDS011;15980;51.092;13.916;2022-12-07T20:49:30;21.42;;;8.52;;
27863;SDS011;15980;51.092;13.916;2022-12-07T20:54:37;8.85;;;4.35;;
27863;SDS011;15980;51.092;13.916;2022-12-07T20:59:43;9.38;;;4.78;;
27863;SDS011;15980;51.092;13.916;2022-12-07T21:04:53;17.85;;;6.00;;
27863;SDS011;15980;51.092;13.916;2022-12-07T21:09:58;21.35;;;6.65;;
27863;SDS011;15980;51.092;13.916;2022-12-07T21:15:03;19.90;;;7.03;;
27863;SDS011;15980;51.092;13.916;2022-12-07T21:20:16;32.28;;;21.80;;
27863;SDS011;15980;51.092;13.916;2022-12-07T21:25:21;25.67;;;11.63;;
27863;SDS011;15980;51.092;13.916;2022-12-07T21:30:27;24.85;;;11.27;;
27863;SDS011;15980;51.092;13.916;2022-12-07T21:35:43;30.88;;;10.43;;
27863;SDS011;15980;51.092;13.916;2022-12-07T21:40:48;42.42;;;19.83;;
27863;SDS011;15980;51.092;13.916;2022-12-07T21:45:53;31.30;;;13.40;;
27863;SDS011;15980;51.092;13.916;2022-12-07T21:51:05;38.92;;;16.50;;
27863;SDS011;15980;51.092;13.916;2022-12-07T21:56:12;47.50;;;17.27;;
27863;SDS011;15980;51.092;13.916;2022-12-07T22:01:19;45.08;;;16.33;;
27863;SDS011;15980;51.092;13.916;2022-12-07T22:06:29;33.58;;;13.85;;
27863;SDS011;15980;51.092;13.916;2022-12-07T22:11:34;59.53;;;17.00;;
27863;SDS011;15980;51.092;13.916;2022-12-07T22:16:39;41.42;;;13.63;;
27863;SDS011;15980;51.092;13.916;2022-12-07T22:21:47;50.53;;;16.48;;
27863;SDS011;15980;51.092;13.916;2022-12-07T22:26:52;34.03;;;10.10;;
27863;SDS011;15980;51.092;13.916;2022-12-07T22:31:56;27.77;;;8.85;;
27863;SDS011;15980;51.092;13.916;2022-12-07T22:37:12;24.08;;;7.00;;
27863;SDS011;15980;51.092;13.916;2022-12-07T22:42:17;17.08;;;5.63;;
27863;SDS011;15980;51.092;13.916;2022-12-07T22:47:22;20.60;;;5.40;;
27863;SDS011;15980;51.092;13.916;2022-12-07T22:52:29;15.85;;;4.65;;
27863;SDS011;15980;51.092;13.916;2022-12-07T22:57:34;14.88;;;5.28;;
27863;SDS011;15980;51.092;13.916;2022-12-07T23:02:39;11.10;;;4.75;;
27863;SDS011;15980;51.092;13.916;2022-12-07T23:07:46;14.23;;;4.78;;
27863;SDS011;15980;51.092;13.916;2022-12-07T23:12:51;14.48;;;4.82;;
27863;SDS011;15980;51.092;13.916;2022-12-07T23:18:09;10.68;;;4.88;;
27863;SDS011;15980;51.092;13.916;2022-12-07T23:23:16;12.50;;;4.45;;
27863;SDS011;15980;51.092;13.916;2022-12-07T23:28:21;10.43;;;4.07;;
27863;SDS011;15980;51.092;13.916;2022-12-07T23:33:26;11.40;;;4.57;;
27863;SDS011;15980;51.092;13.916;2022-12-07T23:38:34;17.15;;;5.93;;
27863;SDS011;15980;51.092;13.916;2022-12-07T23:43:39;35.55;;;8.60;;
27863;SDS011;15980;51.092;13.916;2022-12-07T23:48:44;54.53;;;12.30;;
27863;SDS011;15980;51.092;13.916;2022-12-07T23:53:53;45.03;;;10.43;;
27863;SDS011;15980;51.092;13.916;2022-12-07T23:58:58;72.55;;;16.42;;
